Pagrindinis puslapis
METAR-TAF:

METAR-TAF

Oro uostai :

Zaporožė, Ukraina

platuma: 47-52-02N, ilguma: 035-18-59E, Aukštis: 114 m

Dabartinis oras

Ataskaita buvo paskelbta 19 minutes, ne 09:00 UTC
Vėjas 2 kt nuo kintamojo kryptimis
Temperatūra 20°C
Drėgmė 60%
Slėgis 1019 hPa
Matomumas 10 km arba daugiau
nėra debesų žemiau 1500 m ir nėra kamuolinių lietaus debesų

METAR: UKDE 180900Z VRB01MPS CAVOK 20/12 Q1019 R02R/////// NOSIG

Laikas: 12:19 (09:19 UTC)

Prognozė

Ataskaita buvo paskelbta 1 valandą ir 17 minutes, ne 08:02 UTC
Prognozė galioja nuo 18 metu 09 UTC su 18 metu 18 UTC
Vėjas 6 kt iš Šiaurės Rytų
Matomumas 10 km arba daugiau
nėra debesų žemiau 1500 m ir nėra kamuolinių lietaus debesų
Laikinai
nuo 18 metu 16 UTC su 18 metu 18 UTC
Matomumas: 3100 m
Išsisklaidę debesys ne aukštis 800 ft
rūkana

TAF: UKDE 180802Z 1809/1818 05003MPS CAVOK TEMPO 1816/1818 3100 BR SCT008

Orai ataskaitas ir orų prognozės (METAR, TAF).

turimą stotys yra geltonos ir raudonos taškus žemėlapyje.

Perkelti pele per norėdami pamatyti stoties vardą.

Tada spustelėkite, norėdami matyti oro stebėjimo ir prognozės.

Norėdami pakeisti žemėlapį: spustelėkite ant žalios mygtukų su juodo kryžiaus žemyn,; žalią mygtuką su brūkšneliu, jei norite nutolinti; arba žalių rodyklių gretimoms žemėlapius.


METAR-TAF: